Portada
METAR-TAF:

METAR-TAF

Aeroports :

George Town, Grand Cayman, Illes Caiman

latitud: 19-17N, longitud: 081-21W, altitud: 3 m

Observació

L'informe es va fer fa 1 hora i 16 minuts, a les 03:00 UTC
Vent 7 kt del Est
Temperatura 26°C
Humitat 94%
Pressió 1017 hPa
Visibilitat 10 km o més
Escasses núvols a una alçada de 2000 ft

METAR: MWCR 300300Z 10007KT 9999 FEW020 26/25 Q1017

Hora: 23:16 (04:16 UTC)

Pronòstic

L'informe es va fer fa 5 hores i 16 minuts, a les 23:00 UTC
Pronòstic vàlid del 30 a les 00 UTC al 30 a les 24 UTC
Vent 10 kt del Est
Visibilitat 10 km o més
Escasses núvols a una alçada de 1800 ft
Probabilitat 3O% :
Temporalment
l' 30 a les 03 UTC al 30 a les 09 UTC
Núvols disperses a una alçada de 1800 ft
xàfecs en les proximitats

TAF: MWCR 292300Z 3000/3024 09010KT 9999 FEW018 PROB3O TEMPO 3003/3009 VCSH SCT018

Observacions i pronòstics meteorològics de més de 4000 aeroports (METAR i TAF).

Les estacions disponibles són els punts grocs i vermells al mapa.

Posi el ratolí al punt desitjat per veure el nom de l'estació.

Feu clic per veure les observacions i els pronòstics meteorològics.

Per canviar el mapa: feu clic els botons verds amb una creu de color negre per apropar; al botó verd amb un guió per allunyar la imatge; o en les fletxes verdes per a mapes adjacents.


METAR-TAF: